sensor_id;sensor_type;location;lat;lon;timestamp;P1;durP1;ratioP1;P2;durP2;ratioP2
8913;SDS011;4492;48.736;9.092;2022-12-18T00:01:56;45.77;;;16.87;;
8913;SDS011;4492;48.736;9.092;2022-12-18T00:04:23;45.90;;;17.10;;
8913;SDS011;4492;48.736;9.092;2022-12-18T00:06:49;49.00;;;16.77;;
8913;SDS011;4492;48.736;9.092;2022-12-18T00:09:15;43.80;;;16.60;;
8913;SDS011;4492;48.736;9.092;2022-12-18T00:11:41;49.17;;;18.43;;
8913;SDS011;4492;48.736;9.092;2022-12-18T00:14:08;50.97;;;17.73;;
8913;SDS011;4492;48.736;9.092;2022-12-18T00:16:36;47.13;;;17.43;;
8913;SDS011;4492;48.736;9.092;2022-12-18T00:19:02;48.53;;;17.43;;
8913;SDS011;4492;48.736;9.092;2022-12-18T00:21:28;50.50;;;16.83;;
8913;SDS011;4492;48.736;9.092;2022-12-18T00:23:56;42.83;;;16.43;;
8913;SDS011;4492;48.736;9.092;2022-12-18T00:26:23;48.60;;;17.97;;
8913;SDS011;4492;48.736;9.092;2022-12-18T00:28:54;49.57;;;18.03;;
8913;SDS011;4492;48.736;9.092;2022-12-18T00:31:23;49.90;;;17.77;;
8913;SDS011;4492;48.736;9.092;2022-12-18T00:33:49;48.07;;;17.90;;
8913;SDS011;4492;48.736;9.092;2022-12-18T00:36:18;45.37;;;17.60;;
8913;SDS011;4492;48.736;9.092;2022-12-18T00:38:46;45.17;;;16.50;;
8913;SDS011;4492;48.736;9.092;2022-12-18T00:41:12;43.60;;;17.00;;
8913;SDS011;4492;48.736;9.092;2022-12-18T00:43:59;50.83;;;18.87;;
8913;SDS011;4492;48.736;9.092;2022-12-18T00:46:25;53.13;;;18.17;;
8913;SDS011;4492;48.736;9.092;2022-12-18T00:48:51;47.53;;;18.03;;
8913;SDS011;4492;48.736;9.092;2022-12-18T00:51:16;52.13;;;18.10;;
8913;SDS011;4492;48.736;9.092;2022-12-18T00:53:42;46.83;;;17.97;;
8913;SDS011;4492;48.736;9.092;2022-12-18T00:56:08;54.63;;;18.50;;
8913;SDS011;4492;48.736;9.092;2022-12-18T00:58:33;48.60;;;17.83;;
8913;SDS011;4492;48.736;9.092;2022-12-18T01:00:59;50.80;;;18.93;;
8913;SDS011;4492;48.736;9.092;2022-12-18T01:03:25;50.93;;;19.17;;
8913;SDS011;4492;48.736;9.092;2022-12-18T01:05:50;50.67;;;17.53;;
8913;SDS011;4492;48.736;9.092;2022-12-18T01:08:16;50.90;;;17.57;;
8913;SDS011;4492;48.736;9.092;2022-12-18T01:10:41;47.67;;;16.90;;
8913;SDS011;4492;48.736;9.092;2022-12-18T01:13:07;52.23;;;18.13;;
8913;SDS011;4492;48.736;9.092;2022-12-18T01:15:33;48.50;;;17.27;;
8913;SDS011;4492;48.736;9.092;2022-12-18T01:17:59;47.87;;;18.80;;
8913;SDS011;4492;48.736;9.092;2022-12-18T01:20:24;51.43;;;18.20;;
8913;SDS011;4492;48.736;9.092;2022-12-18T01:22:50;52.93;;;19.30;;
8913;SDS011;4492;48.736;9.092;2022-12-18T01:25:16;53.80;;;19.77;;
8913;SDS011;4492;48.736;9.092;2022-12-18T01:27:41;45.27;;;17.53;;
8913;SDS011;4492;48.736;9.092;2022-12-18T01:30:07;48.00;;;17.77;;
8913;SDS011;4492;48.736;9.092;2022-12-18T01:32:33;45.17;;;17.13;;
8913;SDS011;4492;48.736;9.092;2022-12-18T01:34:59;51.53;;;17.57;;
8913;SDS011;4492;48.736;9.092;2022-12-18T01:37:24;54.63;;;19.10;;
8913;SDS011;4492;48.736;9.092;2022-12-18T01:39:50;49.10;;;17.90;;
8913;SDS011;4492;48.736;9.092;2022-12-18T01:42:19;47.83;;;17.03;;
8913;SDS011;4492;48.736;9.092;2022-12-18T01:50:10;49.30;;;17.70;;
8913;SDS011;4492;48.736;9.092;2022-12-18T01:52:48;46.90;;;17.87;;
8913;SDS011;4492;48.736;9.092;2022-12-18T01:55:18;47.90;;;17.10;;
8913;SDS011;4492;48.736;9.092;2022-12-18T01:57:47;47.20;;;17.03;;
8913;SDS011;4492;48.736;9.092;2022-12-18T02:00:14;44.37;;;15.80;;
8913;SDS011;4492;48.736;9.092;2022-12-18T02:02:43;53.37;;;17.27;;
8913;SDS011;4492;48.736;9.092;2022-12-18T02:05:10;43.90;;;17.30;;
8913;SDS011;4492;48.736;9.092;2022-12-18T02:10:22;50.40;;;17.10;;
8913;SDS011;4492;48.736;9.092;2022-12-18T02:17:58;48.60;;;17.80;;
8913;SDS011;4492;48.736;9.092;2022-12-18T02:20:39;42.10;;;16.37;;
8913;SDS011;4492;48.736;9.092;2022-12-18T02:23:19;46.67;;;17.40;;
8913;SDS011;4492;48.736;9.092;2022-12-18T02:28:30;44.77;;;17.30;;
8913;SDS011;4492;48.736;9.092;2022-12-18T02:31:00;42.23;;;15.57;;
8913;SDS011;4492;48.736;9.092;2022-12-18T02:33:28;43.37;;;15.33;;
8913;SDS011;4492;48.736;9.092;2022-12-18T02:35:55;43.67;;;15.77;;
8913;SDS011;4492;48.736;9.092;2022-12-18T02:38:23;38.70;;;15.00;;
8913;SDS011;4492;48.736;9.092;2022-12-18T02:40:50;41.27;;;15.27;;
8913;SDS011;4492;48.736;9.092;2022-12-18T02:43:18;38.97;;;14.07;;
8913;SDS011;4492;48.736;9.092;2022-12-18T02:45:50;41.20;;;15.57;;
8913;SDS011;4492;48.736;9.092;2022-12-18T02:48:23;36.97;;;14.73;;
8913;SDS011;4492;48.736;9.092;2022-12-18T02:51:03;39.23;;;14.10;;
8913;SDS011;4492;48.736;9.092;2022-12-18T02:53:42;37.33;;;14.20;;
8913;SDS011;4492;48.736;9.092;2022-12-18T02:56:20;41.50;;;14.57;;
8913;SDS011;4492;48.736;9.092;2022-12-18T03:04:22;42.27;;;15.33;;
8913;SDS011;4492;48.736;9.092;2022-12-18T03:06:53;41.07;;;14.40;;
8913;SDS011;4492;48.736;9.092;2022-12-18T03:09:25;39.87;;;14.87;;
8913;SDS011;4492;48.736;9.092;2022-12-18T03:11:58;43.53;;;15.03;;
8913;SDS011;4492;48.736;9.092;2022-12-18T03:14:54;43.23;;;14.73;;
8913;SDS011;4492;48.736;9.092;2022-12-18T03:17:28;33.93;;;13.50;;
8913;SDS011;4492;48.736;9.092;2022-12-18T03:19:58;38.93;;;14.43;;
8913;SDS011;4492;48.736;9.092;2022-12-18T03:22:28;36.50;;;13.73;;
8913;SDS011;4492;48.736;9.092;2022-12-18T03:24:57;40.13;;;15.00;;
8913;SDS011;4492;48.736;9.092;2022-12-18T03:27:25;37.37;;;14.33;;
8913;SDS011;4492;48.736;9.092;2022-12-18T03:30:04;37.77;;;13.80;;
8913;SDS011;4492;48.736;9.092;2022-12-18T03:32:39;32.37;;;12.30;;
8913;SDS011;4492;48.736;9.092;2022-12-18T03:35:26;35.20;;;13.40;;
8913;SDS011;4492;48.736;9.092;2022-12-18T03:37:55;35.13;;;13.80;;
8913;SDS011;4492;48.736;9.092;2022-12-18T03:40:22;31.50;;;12.33;;
8913;SDS011;4492;48.736;9.092;2022-12-18T03:42:59;33.20;;;13.03;;
8913;SDS011;4492;48.736;9.092;2022-12-18T03:45:46;28.97;;;12.80;;
8913;SDS011;4492;48.736;9.092;2022-12-18T03:48:23;29.50;;;12.20;;
8913;SDS011;4492;48.736;9.092;2022-12-18T03:50:57;31.40;;;12.43;;
8913;SDS011;4492;48.736;9.092;2022-12-18T03:56:01;34.97;;;12.20;;
8913;SDS011;4492;48.736;9.092;2022-12-18T03:58:29;30.07;;;12.03;;
8913;SDS011;4492;48.736;9.092;2022-12-18T04:00:59;31.50;;;12.07;;
8913;SDS011;4492;48.736;9.092;2022-12-18T04:03:27;27.03;;;11.20;;
8913;SDS011;4492;48.736;9.092;2022-12-18T04:05:55;31.03;;;11.83;;
8913;SDS011;4492;48.736;9.092;2022-12-18T04:08:23;30.23;;;12.03;;
8913;SDS011;4492;48.736;9.092;2022-12-18T04:10:50;29.17;;;12.00;;
8913;SDS011;4492;48.736;9.092;2022-12-18T04:13:23;29.80;;;12.13;;
8913;SDS011;4492;48.736;9.092;2022-12-18T04:15:52;28.53;;;11.57;;
8913;SDS011;4492;48.736;9.092;2022-12-18T04:18:18;35.77;;;12.50;;
8913;SDS011;4492;48.736;9.092;2022-12-18T04:20:44;32.07;;;11.47;;
8913;SDS011;4492;48.736;9.092;2022-12-18T04:23:09;27.30;;;12.77;;
8913;SDS011;4492;48.736;9.092;2022-12-18T04:25:35;33.47;;;12.23;;
8913;SDS011;4492;48.736;9.092;2022-12-18T04:28:00;28.03;;;11.03;;
8913;SDS011;4492;48.736;9.092;2022-12-18T04:30:26;27.40;;;11.13;;
8913;SDS011;4492;48.736;9.092;2022-12-18T04:32:52;32.03;;;12.07;;
8913;SDS011;4492;48.736;9.092;2022-12-18T04:35:17;27.13;;;11.50;;
8913;SDS011;4492;48.736;9.092;2022-12-18T04:37:43;29.60;;;11.47;;
8913;SDS011;4492;48.736;9.092;2022-12-18T04:40:09;33.97;;;12.17;;
8913;SDS011;4492;48.736;9.092;2022-12-18T04:42:35;35.50;;;13.47;;
8913;SDS011;4492;48.736;9.092;2022-12-18T04:45:00;31.43;;;11.93;;
8913;SDS011;4492;48.736;9.092;2022-12-18T04:47:26;34.13;;;12.97;;
8913;SDS011;4492;48.736;9.092;2022-12-18T04:49:51;35.83;;;13.50;;
8913;SDS011;4492;48.736;9.092;2022-12-18T04:52:17;34.27;;;13.73;;
8913;SDS011;4492;48.736;9.092;2022-12-18T04:54:43;30.37;;;12.90;;
8913;SDS011;4492;48.736;9.092;2022-12-18T04:57:09;32.20;;;13.23;;
8913;SDS011;4492;48.736;9.092;2022-12-18T04:59:35;35.97;;;13.50;;
8913;SDS011;4492;48.736;9.092;2022-12-18T05:02:00;33.97;;;13.23;;
8913;SDS011;4492;48.736;9.092;2022-12-18T05:04:26;34.13;;;12.77;;
8913;SDS011;4492;48.736;9.092;2022-12-18T05:06:51;35.73;;;13.80;;
8913;SDS011;4492;48.736;9.092;2022-12-18T05:09:17;28.27;;;11.60;;
8913;SDS011;4492;48.736;9.092;2022-12-18T05:11:43;26.37;;;11.30;;
8913;SDS011;4492;48.736;9.092;2022-12-18T05:14:08;28.97;;;11.87;;
8913;SDS011;4492;48.736;9.092;2022-12-18T05:16:34;30.87;;;11.40;;
8913;SDS011;4492;48.736;9.092;2022-12-18T05:18:59;33.03;;;12.00;;
8913;SDS011;4492;48.736;9.092;2022-12-18T05:21:25;32.87;;;12.03;;
8913;SDS011;4492;48.736;9.092;2022-12-18T05:23:51;33.77;;;11.47;;
8913;SDS011;4492;48.736;9.092;2022-12-18T05:26:17;29.67;;;11.17;;
8913;SDS011;4492;48.736;9.092;2022-12-18T05:28:43;34.07;;;11.77;;
8913;SDS011;4492;48.736;9.092;2022-12-18T05:31:09;32.87;;;12.40;;
8913;SDS011;4492;48.736;9.092;2022-12-18T05:33:35;30.77;;;11.50;;
8913;SDS011;4492;48.736;9.092;2022-12-18T05:36:02;39.07;;;13.87;;
8913;SDS011;4492;48.736;9.092;2022-12-18T05:38:29;39.53;;;13.20;;
8913;SDS011;4492;48.736;9.092;2022-12-18T05:40:56;34.77;;;11.47;;
8913;SDS011;4492;48.736;9.092;2022-12-18T05:43:22;35.77;;;11.87;;
8913;SDS011;4492;48.736;9.092;2022-12-18T05:45:50;32.80;;;11.40;;
8913;SDS011;4492;48.736;9.092;2022-12-18T05:48:17;32.97;;;12.67;;
8913;SDS011;4492;48.736;9.092;2022-12-18T05:50:44;30.23;;;11.00;;
8913;SDS011;4492;48.736;9.092;2022-12-18T05:53:11;31.53;;;12.40;;
8913;SDS011;4492;48.736;9.092;2022-12-18T05:55:38;37.80;;;12.63;;
8913;SDS011;4492;48.736;9.092;2022-12-18T05:58:06;28.23;;;11.07;;
8913;SDS011;4492;48.736;9.092;2022-12-18T06:00:33;31.87;;;12.33;;
8913;SDS011;4492;48.736;9.092;2022-12-18T06:03:04;35.63;;;11.97;;
8913;SDS011;4492;48.736;9.092;2022-12-18T06:05:34;27.80;;;10.90;;
8913;SDS011;4492;48.736;9.092;2022-12-18T06:08:07;34.83;;;11.73;;
8913;SDS011;4492;48.736;9.092;2022-12-18T06:10:32;28.83;;;11.80;;
8913;SDS011;4492;48.736;9.092;2022-12-18T06:12:58;32.43;;;11.43;;
8913;SDS011;4492;48.736;9.092;2022-12-18T06:15:24;29.20;;;11.57;;
8913;SDS011;4492;48.736;9.092;2022-12-18T06:17:49;34.97;;;11.63;;
8913;SDS011;4492;48.736;9.092;2022-12-18T06:20:15;36.90;;;13.20;;
8913;SDS011;4492;48.736;9.092;2022-12-18T06:22:41;31.80;;;12.13;;
8913;SDS011;4492;48.736;9.092;2022-12-18T06:25:07;28.57;;;11.20;;
8913;SDS011;4492;48.736;9.092;2022-12-18T06:27:32;32.63;;;12.30;;
8913;SDS011;4492;48.736;9.092;2022-12-18T06:30:01;29.13;;;11.47;;
8913;SDS011;4492;48.736;9.092;2022-12-18T06:32:27;30.53;;;11.60;;
8913;SDS011;4492;48.736;9.092;2022-12-18T06:34:53;28.53;;;12.00;;
8913;SDS011;4492;48.736;9.092;2022-12-18T06:37:20;35.87;;;12.40;;
8913;SDS011;4492;48.736;9.092;2022-12-18T06:39:46;32.57;;;11.80;;
8913;SDS011;4492;48.736;9.092;2022-12-18T06:42:11;31.03;;;11.30;;
8913;SDS011;4492;48.736;9.092;2022-12-18T06:44:37;35.30;;;11.60;;
8913;SDS011;4492;48.736;9.092;2022-12-18T06:47:02;31.47;;;10.70;;
8913;SDS011;4492;48.736;9.092;2022-12-18T06:49:28;29.60;;;11.03;;
8913;SDS011;4492;48.736;9.092;2022-12-18T06:51:54;29.03;;;11.17;;
8913;SDS011;4492;48.736;9.092;2022-12-18T06:54:19;28.43;;;10.57;;
8913;SDS011;4492;48.736;9.092;2022-12-18T06:56:46;29.17;;;11.40;;
8913;SDS011;4492;48.736;9.092;2022-12-18T06:59:12;30.60;;;11.97;;
8913;SDS011;4492;48.736;9.092;2022-12-18T07:01:39;34.53;;;11.30;;
8913;SDS011;4492;48.736;9.092;2022-12-18T07:04:05;28.50;;;10.53;;
8913;SDS011;4492;48.736;9.092;2022-12-18T07:06:31;36.33;;;12.20;;
8913;SDS011;4492;48.736;9.092;2022-12-18T07:08:56;31.57;;;11.07;;
8913;SDS011;4492;48.736;9.092;2022-12-18T07:11:22;31.13;;;11.83;;
8913;SDS011;4492;48.736;9.092;2022-12-18T07:13:48;36.40;;;12.30;;
8913;SDS011;4492;48.736;9.092;2022-12-18T07:16:16;36.07;;;12.43;;
8913;SDS011;4492;48.736;9.092;2022-12-18T07:18:43;34.90;;;13.10;;
8913;SDS011;4492;48.736;9.092;2022-12-18T07:21:11;39.73;;;13.93;;
8913;SDS011;4492;48.736;9.092;2022-12-18T07:23:38;36.47;;;13.30;;
8913;SDS011;4492;48.736;9.092;2022-12-18T07:26:05;46.40;;;14.77;;
8913;SDS011;4492;48.736;9.092;2022-12-18T07:28:33;46.10;;;15.10;;
8913;SDS011;4492;48.736;9.092;2022-12-18T07:31:04;48.93;;;14.27;;
8913;SDS011;4492;48.736;9.092;2022-12-18T07:33:32;41.73;;;14.07;;
8913;SDS011;4492;48.736;9.092;2022-12-18T07:35:59;43.03;;;14.97;;
8913;SDS011;4492;48.736;9.092;2022-12-18T07:38:25;53.40;;;14.33;;
8913;SDS011;4492;48.736;9.092;2022-12-18T07:40:51;44.17;;;14.60;;
8913;SDS011;4492;48.736;9.092;2022-12-18T07:43:17;35.73;;;13.33;;
8913;SDS011;4492;48.736;9.092;2022-12-18T07:45:42;41.97;;;14.37;;
8913;SDS011;4492;48.736;9.092;2022-12-18T07:48:08;56.77;;;19.07;;
8913;SDS011;4492;48.736;9.092;2022-12-18T07:50:34;60.50;;;17.30;;
8913;SDS011;4492;48.736;9.092;2022-12-18T07:53:00;44.97;;;14.87;;
8913;SDS011;4492;48.736;9.092;2022-12-18T07:55:28;38.57;;;13.37;;
8913;SDS011;4492;48.736;9.092;2022-12-18T07:57:55;37.00;;;13.83;;
8913;SDS011;4492;48.736;9.092;2022-12-18T08:00:21;38.77;;;14.23;;
8913;SDS011;4492;48.736;9.092;2022-12-18T08:02:46;38.80;;;14.07;;
8913;SDS011;4492;48.736;9.092;2022-12-18T08:05:12;37.93;;;14.37;;
8913;SDS011;4492;48.736;9.092;2022-12-18T08:07:38;43.30;;;15.17;;
8913;SDS011;4492;48.736;9.092;2022-12-18T08:10:04;40.60;;;15.43;;
8913;SDS011;4492;48.736;9.092;2022-12-18T08:12:32;36.40;;;15.13;;
8913;SDS011;4492;48.736;9.092;2022-12-18T08:14:58;38.80;;;14.07;;
8913;SDS011;4492;48.736;9.092;2022-12-18T08:17:23;35.27;;;14.10;;
8913;SDS011;4492;48.736;9.092;2022-12-18T08:19:49;39.53;;;14.77;;
8913;SDS011;4492;48.736;9.092;2022-12-18T08:22:14;38.40;;;13.57;;
8913;SDS011;4492;48.736;9.092;2022-12-18T08:24:40;41.80;;;14.50;;
8913;SDS011;4492;48.736;9.092;2022-12-18T08:27:06;41.20;;;15.03;;
8913;SDS011;4492;48.736;9.092;2022-12-18T08:29:31;41.43;;;16.17;;
8913;SDS011;4492;48.736;9.092;2022-12-18T08:31:58;43.73;;;16.13;;
8913;SDS011;4492;48.736;9.092;2022-12-18T08:34:24;40.17;;;14.77;;
8913;SDS011;4492;48.736;9.092;2022-12-18T08:36:50;40.57;;;14.70;;
8913;SDS011;4492;48.736;9.092;2022-12-18T08:39:15;35.57;;;14.37;;
8913;SDS011;4492;48.736;9.092;2022-12-18T08:41:41;40.80;;;15.13;;
8913;SDS011;4492;48.736;9.092;2022-12-18T08:44:07;39.30;;;15.17;;
8913;SDS011;4492;48.736;9.092;2022-12-18T08:46:51;43.33;;;15.17;;
8913;SDS011;4492;48.736;9.092;2022-12-18T08:49:17;41.77;;;14.93;;
8913;SDS011;4492;48.736;9.092;2022-12-18T08:51:43;34.33;;;13.90;;
8913;SDS011;4492;48.736;9.092;2022-12-18T08:54:10;43.40;;;14.33;;
8913;SDS011;4492;48.736;9.092;2022-12-18T08:56:37;34.33;;;14.20;;
8913;SDS011;4492;48.736;9.092;2022-12-18T08:59:03;34.93;;;13.93;;
8913;SDS011;4492;48.736;9.092;2022-12-18T09:01:29;37.37;;;14.33;;
8913;SDS011;4492;48.736;9.092;2022-12-18T09:03:55;41.10;;;14.63;;
8913;SDS011;4492;48.736;9.092;2022-12-18T09:06:21;34.70;;;14.03;;
8913;SDS011;4492;48.736;9.092;2022-12-18T09:08:47;40.70;;;16.03;;
8913;SDS011;4492;48.736;9.092;2022-12-18T09:11:23;36.93;;;14.57;;
8913;SDS011;4492;48.736;9.092;2022-12-18T09:13:50;39.53;;;15.20;;
8913;SDS011;4492;48.736;9.092;2022-12-18T09:16:17;36.70;;;15.00;;
8913;SDS011;4492;48.736;9.092;2022-12-18T09:18:43;40.70;;;14.87;;
8913;SDS011;4492;48.736;9.092;2022-12-18T09:21:14;38.80;;;15.17;;
8913;SDS011;4492;48.736;9.092;2022-12-18T09:23:44;42.27;;;15.23;;
8913;SDS011;4492;48.736;9.092;2022-12-18T09:26:17;36.13;;;15.10;;
8913;SDS011;4492;48.736;9.092;2022-12-18T09:28:43;37.03;;;14.80;;
8913;SDS011;4492;48.736;9.092;2022-12-18T09:31:10;39.00;;;15.03;;
8913;SDS011;4492;48.736;9.092;2022-12-18T09:33:40;37.63;;;14.47;;
8913;SDS011;4492;48.736;9.092;2022-12-18T09:36:06;41.87;;;15.10;;
8913;SDS011;4492;48.736;9.092;2022-12-18T09:38:34;36.60;;;14.73;;
8913;SDS011;4492;48.736;9.092;2022-12-18T09:41:01;38.83;;;14.20;;
8913;SDS011;4492;48.736;9.092;2022-12-18T09:43:39;37.50;;;13.83;;
8913;SDS011;4492;48.736;9.092;2022-12-18T09:46:10;33.57;;;13.90;;
8913;SDS011;4492;48.736;9.092;2022-12-18T09:48:44;34.87;;;13.27;;
8913;SDS011;4492;48.736;9.092;2022-12-18T09:51:14;39.53;;;15.03;;
8913;SDS011;4492;48.736;9.092;2022-12-18T09:53:45;39.03;;;14.97;;
8913;SDS011;4492;48.736;9.092;2022-12-18T09:56:20;33.40;;;14.03;;
8913;SDS011;4492;48.736;9.092;2022-12-18T10:01:27;37.00;;;15.47;;
8913;SDS011;4492;48.736;9.092;2022-12-18T10:03:53;38.60;;;14.57;;
8913;SDS011;4492;48.736;9.092;2022-12-18T10:06:32;29.93;;;13.60;;
8913;SDS011;4492;48.736;9.092;2022-12-18T10:12:12;37.43;;;14.47;;
8913;SDS011;4492;48.736;9.092;2022-12-18T10:17:53;37.50;;;14.07;;
8913;SDS011;4492;48.736;9.092;2022-12-18T10:23:04;38.30;;;14.10;;
8913;SDS011;4492;48.736;9.092;2022-12-18T10:28:26;33.07;;;13.23;;
8913;SDS011;4492;48.736;9.092;2022-12-18T10:30:55;34.00;;;13.90;;
8913;SDS011;4492;48.736;9.092;2022-12-18T10:33:22;36.53;;;14.37;;
8913;SDS011;4492;48.736;9.092;2022-12-18T10:35:49;35.87;;;13.77;;
8913;SDS011;4492;48.736;9.092;2022-12-18T10:43:31;37.23;;;14.67;;
8913;SDS011;4492;48.736;9.092;2022-12-18T10:48:39;36.43;;;14.73;;
8913;SDS011;4492;48.736;9.092;2022-12-18T10:51:06;37.47;;;13.93;;
8913;SDS011;4492;48.736;9.092;2022-12-18T10:53:33;37.93;;;13.80;;
8913;SDS011;4492;48.736;9.092;2022-12-18T10:56:01;33.47;;;13.90;;
8913;SDS011;4492;48.736;9.092;2022-12-18T10:58:30;35.03;;;13.93;;
8913;SDS011;4492;48.736;9.092;2022-12-18T11:01:03;36.40;;;14.93;;
8913;SDS011;4492;48.736;9.092;2022-12-18T11:06:19;36.97;;;13.57;;
8913;SDS011;4492;48.736;9.092;2022-12-18T11:11:54;35.97;;;13.90;;
8913;SDS011;4492;48.736;9.092;2022-12-18T11:14:26;28.33;;;12.80;;
8913;SDS011;4492;48.736;9.092;2022-12-18T11:16:54;37.53;;;14.40;;
8913;SDS011;4492;48.736;9.092;2022-12-18T11:22:00;40.87;;;14.40;;
8913;SDS011;4492;48.736;9.092;2022-12-18T11:24:42;33.07;;;14.17;;
8913;SDS011;4492;48.736;9.092;2022-12-18T11:27:13;35.30;;;14.57;;
8913;SDS011;4492;48.736;9.092;2022-12-18T11:29:42;38.57;;;14.40;;
8913;SDS011;4492;48.736;9.092;2022-12-18T11:34:45;38.37;;;14.40;;
8913;SDS011;4492;48.736;9.092;2022-12-18T11:37:13;40.20;;;15.27;;
8913;SDS011;4492;48.736;9.092;2022-12-18T11:39:54;32.57;;;14.43;;
8913;SDS011;4492;48.736;9.092;2022-12-18T11:47:52;33.20;;;14.10;;
8913;SDS011;4492;48.736;9.092;2022-12-18T11:52:50;32.50;;;13.43;;
8913;SDS011;4492;48.736;9.092;2022-12-18T11:55:21;36.63;;;14.60;;
8913;SDS011;4492;48.736;9.092;2022-12-18T12:00:26;35.17;;;14.50;;
8913;SDS011;4492;48.736;9.092;2022-12-18T12:10:40;38.43;;;15.30;;
8913;SDS011;4492;48.736;9.092;2022-12-18T12:21:09;38.43;;;15.53;;
8913;SDS011;4492;48.736;9.092;2022-12-18T12:34:55;36.07;;;14.83;;
8913;SDS011;4492;48.736;9.092;2022-12-18T12:39:59;40.53;;;17.33;;
8913;SDS011;4492;48.736;9.092;2022-12-18T12:45:36;40.53;;;16.53;;
8913;SDS011;4492;48.736;9.092;2022-12-18T12:48:13;41.87;;;17.40;;
8913;SDS011;4492;48.736;9.092;2022-12-18T12:51:02;38.93;;;17.07;;
8913;SDS011;4492;48.736;9.092;2022-12-18T12:53:36;40.83;;;16.37;;
8913;SDS011;4492;48.736;9.092;2022-12-18T12:56:03;39.77;;;16.50;;
8913;SDS011;4492;48.736;9.092;2022-12-18T13:07:14;37.83;;;15.73;;
8913;SDS011;4492;48.736;9.092;2022-12-18T13:12:51;42.77;;;17.70;;
8913;SDS011;4492;48.736;9.092;2022-12-18T13:15:27;47.80;;;17.63;;
8913;SDS011;4492;48.736;9.092;2022-12-18T13:20:36;41.20;;;18.33;;
8913;SDS011;4492;48.736;9.092;2022-12-18T13:25:52;44.03;;;17.00;;
8913;SDS011;4492;48.736;9.092;2022-12-18T13:44:40;42.57;;;17.20;;
8913;SDS011;4492;48.736;9.092;2022-12-18T13:49:56;44.90;;;16.83;;
8913;SDS011;4492;48.736;9.092;2022-12-18T13:52:23;39.23;;;16.70;;
8913;SDS011;4492;48.736;9.092;2022-12-18T13:54:58;47.13;;;18.43;;
8913;SDS011;4492;48.736;9.092;2022-12-18T13:59:56;43.53;;;18.80;;
8913;SDS011;4492;48.736;9.092;2022-12-18T14:02:24;47.37;;;19.57;;
8913;SDS011;4492;48.736;9.092;2022-12-18T14:04:51;45.20;;;17.40;;
8913;SDS011;4492;48.736;9.092;2022-12-18T14:07:24;45.37;;;17.40;;
8913;SDS011;4492;48.736;9.092;2022-12-18T14:09:56;39.80;;;16.50;;
8913;SDS011;4492;48.736;9.092;2022-12-18T14:12:25;38.33;;;15.83;;
8913;SDS011;4492;48.736;9.092;2022-12-18T14:18:02;40.77;;;15.63;;
8913;SDS011;4492;48.736;9.092;2022-12-18T14:20:32;35.13;;;15.20;;
8913;SDS011;4492;48.736;9.092;2022-12-18T14:22:59;39.27;;;16.07;;
8913;SDS011;4492;48.736;9.092;2022-12-18T14:25:26;35.30;;;15.03;;
8913;SDS011;4492;48.736;9.092;2022-12-18T14:28:01;32.40;;;14.23;;
8913;SDS011;4492;48.736;9.092;2022-12-18T14:30:31;35.90;;;15.10;;
8913;SDS011;4492;48.736;9.092;2022-12-18T14:33:00;35.10;;;13.90;;
8913;SDS011;4492;48.736;9.092;2022-12-18T14:35:26;38.47;;;15.43;;
8913;SDS011;4492;48.736;9.092;2022-12-18T14:37:52;40.47;;;15.33;;
8913;SDS011;4492;48.736;9.092;2022-12-18T14:40:18;34.53;;;15.03;;
8913;SDS011;4492;48.736;9.092;2022-12-18T14:42:43;37.13;;;15.27;;
8913;SDS011;4492;48.736;9.092;2022-12-18T14:45:32;38.93;;;15.57;;
8913;SDS011;4492;48.736;9.092;2022-12-18T14:48:05;43.27;;;17.53;;
8913;SDS011;4492;48.736;9.092;2022-12-18T14:50:37;34.67;;;14.97;;
8913;SDS011;4492;48.736;9.092;2022-12-18T14:53:03;41.13;;;15.93;;
8913;SDS011;4492;48.736;9.092;2022-12-18T14:55:45;44.20;;;16.27;;
8913;SDS011;4492;48.736;9.092;2022-12-18T14:58:13;41.00;;;16.43;;
8913;SDS011;4492;48.736;9.092;2022-12-18T15:00:42;41.87;;;16.50;;
8913;SDS011;4492;48.736;9.092;2022-12-18T15:03:08;45.10;;;17.63;;
8913;SDS011;4492;48.736;9.092;2022-12-18T15:05:35;44.10;;;17.47;;
8913;SDS011;4492;48.736;9.092;2022-12-18T15:08:01;42.93;;;18.03;;
8913;SDS011;4492;48.736;9.092;2022-12-18T15:10:31;37.73;;;16.17;;
8913;SDS011;4492;48.736;9.092;2022-12-18T15:18:03;46.30;;;17.90;;
8913;SDS011;4492;48.736;9.092;2022-12-18T15:20:32;41.43;;;15.20;;
8913;SDS011;4492;48.736;9.092;2022-12-18T15:23:17;39.83;;;15.70;;
8913;SDS011;4492;48.736;9.092;2022-12-18T15:25:58;43.67;;;16.87;;
8913;SDS011;4492;48.736;9.092;2022-12-18T15:33:39;44.60;;;16.50;;
8913;SDS011;4492;48.736;9.092;2022-12-18T15:36:08;43.37;;;16.50;;
8913;SDS011;4492;48.736;9.092;2022-12-18T15:38:38;43.40;;;16.47;;
8913;SDS011;4492;48.736;9.092;2022-12-18T15:41:04;44.60;;;17.33;;
8913;SDS011;4492;48.736;9.092;2022-12-18T15:43:30;45.40;;;17.10;;
8913;SDS011;4492;48.736;9.092;2022-12-18T15:46:11;40.93;;;16.10;;
8913;SDS011;4492;48.736;9.092;2022-12-18T15:48:39;42.07;;;16.17;;
8913;SDS011;4492;48.736;9.092;2022-12-18T15:51:14;45.20;;;16.97;;
8913;SDS011;4492;48.736;9.092;2022-12-18T15:53:48;49.33;;;17.80;;
8913;SDS011;4492;48.736;9.092;2022-12-18T15:56:16;45.27;;;17.53;;
8913;SDS011;4492;48.736;9.092;2022-12-18T15:59:01;44.17;;;16.57;;
8913;SDS011;4492;48.736;9.092;2022-12-18T16:01:28;43.73;;;17.60;;
8913;SDS011;4492;48.736;9.092;2022-12-18T16:03:55;48.57;;;17.60;;
8913;SDS011;4492;48.736;9.092;2022-12-18T16:06:21;45.53;;;17.93;;
8913;SDS011;4492;48.736;9.092;2022-12-18T16:08:48;49.63;;;18.57;;
8913;SDS011;4492;48.736;9.092;2022-12-18T16:11:24;46.30;;;16.30;;
8913;SDS011;4492;48.736;9.092;2022-12-18T16:16:57;46.83;;;17.20;;
8913;SDS011;4492;48.736;9.092;2022-12-18T16:19:24;43.23;;;16.63;;
8913;SDS011;4492;48.736;9.092;2022-12-18T16:21:51;45.50;;;16.70;;
8913;SDS011;4492;48.736;9.092;2022-12-18T16:24:23;46.60;;;17.90;;
8913;SDS011;4492;48.736;9.092;2022-12-18T16:26:50;45.40;;;17.67;;
8913;SDS011;4492;48.736;9.092;2022-12-18T16:29:17;44.40;;;17.47;;
8913;SDS011;4492;48.736;9.092;2022-12-18T16:31:44;51.50;;;17.87;;
8913;SDS011;4492;48.736;9.092;2022-12-18T16:34:28;43.67;;;16.20;;
8913;SDS011;4492;48.736;9.092;2022-12-18T16:36:56;42.17;;;16.67;;
8913;SDS011;4492;48.736;9.092;2022-12-18T16:39:23;44.20;;;17.43;;
8913;SDS011;4492;48.736;9.092;2022-12-18T16:41:49;47.40;;;18.00;;
8913;SDS011;4492;48.736;9.092;2022-12-18T16:44:15;47.40;;;18.20;;
8913;SDS011;4492;48.736;9.092;2022-12-18T16:46:41;49.40;;;18.47;;
8913;SDS011;4492;48.736;9.092;2022-12-18T16:49:13;42.13;;;15.93;;
8913;SDS011;4492;48.736;9.092;2022-12-18T16:51:40;46.73;;;16.43;;
8913;SDS011;4492;48.736;9.092;2022-12-18T16:54:06;41.70;;;16.23;;
8913;SDS011;4492;48.736;9.092;2022-12-18T16:56:32;45.70;;;16.33;;
8913;SDS011;4492;48.736;9.092;2022-12-18T16:58:58;41.33;;;15.23;;
8913;SDS011;4492;48.736;9.092;2022-12-18T17:01:25;40.03;;;15.10;;
8913;SDS011;4492;48.736;9.092;2022-12-18T17:04:04;40.20;;;16.17;;
8913;SDS011;4492;48.736;9.092;2022-12-18T17:06:32;41.93;;;16.00;;
8913;SDS011;4492;48.736;9.092;2022-12-18T17:08:59;40.63;;;15.93;;
8913;SDS011;4492;48.736;9.092;2022-12-18T17:11:27;42.13;;;17.10;;
8913;SDS011;4492;48.736;9.092;2022-12-18T17:13:55;36.77;;;16.43;;
8913;SDS011;4492;48.736;9.092;2022-12-18T17:16:20;44.40;;;17.37;;
8913;SDS011;4492;48.736;9.092;2022-12-18T17:18:47;44.40;;;16.50;;
8913;SDS011;4492;48.736;9.092;2022-12-18T17:21:13;41.80;;;16.57;;
8913;SDS011;4492;48.736;9.092;2022-12-18T17:23:40;43.23;;;16.60;;
8913;SDS011;4492;48.736;9.092;2022-12-18T17:26:07;42.37;;;16.43;;
8913;SDS011;4492;48.736;9.092;2022-12-18T17:28:35;39.47;;;16.40;;
8913;SDS011;4492;48.736;9.092;2022-12-18T17:31:02;44.60;;;17.00;;
8913;SDS011;4492;48.736;9.092;2022-12-18T17:33:44;46.70;;;17.13;;